Seaview, Washington
Current Conditions -  °F | °C
As of 5:55 PM on Tuesday 25 Nov 2014 (Local Time) from KAST Reporting Station
Overcast Overcast  
Wind Chill: 57°   Ceiling: 4000
Heat Index: 57°   Visibility: 10mi
Dew Point: 54°   Wind: 15mph
Humidity: 89%   Direction: 210°SSW
Pressure: 30.26"   Gusts: 25mph
Location:  46.33°N, 124.05°W
Report Text: KAST 260155Z AUTO 21013G22KT 10SM SCT007 BKN040 OVC055 14/12 A3026 RMK AO2 CIG 005 RWY 08 SLP246 T01390122
Loading
Personal Weather Stations






























Interactive Weather Map New forecast layout! Learn more

10-Day Weather Forecast

Advertisements
Track Severe Weather on mobile